sensor_id;sensor_type;location;lat;lon;timestamp;P1;durP1;ratioP1;P2;durP2;ratioP2
28007;SDS011;15333;50.010;20.020;2022-11-20T00:00:42;203.15;;;75.30;;
28007;SDS011;15333;50.010;20.020;2022-11-20T00:03:53;226.15;;;76.97;;
28007;SDS011;15333;50.010;20.020;2022-11-20T00:06:56;219.07;;;74.70;;
28007;SDS011;15333;50.010;20.020;2022-11-20T00:09:57;215.07;;;78.20;;
28007;SDS011;15333;50.010;20.020;2022-11-20T00:12:58;221.45;;;72.05;;
28007;SDS011;15333;50.010;20.020;2022-11-20T00:15:59;209.80;;;72.75;;
28007;SDS011;15333;50.010;20.020;2022-11-20T00:19:02;227.80;;;76.38;;
28007;SDS011;15333;50.010;20.020;2022-11-20T00:22:03;228.32;;;78.95;;
28007;SDS011;15333;50.010;20.020;2022-11-20T00:25:04;218.50;;;74.75;;
28007;SDS011;15333;50.010;20.020;2022-11-20T00:28:05;244.13;;;78.65;;
28007;SDS011;15333;50.010;20.020;2022-11-20T00:31:07;220.82;;;73.78;;
28007;SDS011;15333;50.010;20.020;2022-11-20T00:34:09;240.70;;;80.07;;
28007;SDS011;15333;50.010;20.020;2022-11-20T00:37:10;221.60;;;71.85;;
28007;SDS011;15333;50.010;20.020;2022-11-20T00:40:11;225.55;;;78.72;;
28007;SDS011;15333;50.010;20.020;2022-11-20T00:43:13;222.90;;;77.15;;
28007;SDS011;15333;50.010;20.020;2022-11-20T00:46:17;219.10;;;71.32;;
28007;SDS011;15333;50.010;20.020;2022-11-20T00:49:19;230.27;;;76.88;;
28007;SDS011;15333;50.010;20.020;2022-11-20T00:52:20;225.13;;;75.93;;
28007;SDS011;15333;50.010;20.020;2022-11-20T00:55:21;218.02;;;73.40;;
28007;SDS011;15333;50.010;20.020;2022-11-20T00:58:22;222.50;;;74.55;;
28007;SDS011;15333;50.010;20.020;2022-11-20T01:01:26;222.52;;;73.97;;
28007;SDS011;15333;50.010;20.020;2022-11-20T01:04:29;209.98;;;70.95;;
28007;SDS011;15333;50.010;20.020;2022-11-20T01:07:31;214.18;;;75.95;;
28007;SDS011;15333;50.010;20.020;2022-11-20T01:10:32;209.57;;;71.65;;
28007;SDS011;15333;50.010;20.020;2022-11-20T01:13:33;214.77;;;74.32;;
28007;SDS011;15333;50.010;20.020;2022-11-20T01:16:38;214.23;;;75.18;;
28007;SDS011;15333;50.010;20.020;2022-11-20T01:19:41;208.48;;;72.47;;
28007;SDS011;15333;50.010;20.020;2022-11-20T01:22:42;209.32;;;72.05;;
28007;SDS011;15333;50.010;20.020;2022-11-20T01:25:42;226.65;;;77.53;;
28007;SDS011;15333;50.010;20.020;2022-11-20T01:28:43;225.20;;;81.95;;
28007;SDS011;15333;50.010;20.020;2022-11-20T01:31:45;255.55;;;87.57;;
28007;SDS011;15333;50.010;20.020;2022-11-20T01:34:46;232.85;;;77.15;;
28007;SDS011;15333;50.010;20.020;2022-11-20T01:37:46;244.98;;;85.43;;
28007;SDS011;15333;50.010;20.020;2022-11-20T01:40:54;257.30;;;82.50;;
28007;SDS011;15333;50.010;20.020;2022-11-20T01:43:56;245.30;;;82.88;;
28007;SDS011;15333;50.010;20.020;2022-11-20T01:47:03;242.75;;;82.82;;
28007;SDS011;15333;50.010;20.020;2022-11-20T01:50:24;246.13;;;84.13;;
28007;SDS011;15333;50.010;20.020;2022-11-20T01:53:32;243.93;;;76.20;;
28007;SDS011;15333;50.010;20.020;2022-11-20T01:56:37;241.75;;;80.05;;
28007;SDS011;15333;50.010;20.020;2022-11-20T01:59:47;240.50;;;83.05;;
28007;SDS011;15333;50.010;20.020;2022-11-20T02:02:58;257.42;;;81.93;;
28007;SDS011;15333;50.010;20.020;2022-11-20T02:09:14;242.52;;;79.97;;
28007;SDS011;15333;50.010;20.020;2022-11-20T02:12:15;237.48;;;81.22;;
28007;SDS011;15333;50.010;20.020;2022-11-20T02:15:35;246.85;;;79.95;;
28007;SDS011;15333;50.010;20.020;2022-11-20T02:18:36;246.73;;;85.57;;
28007;SDS011;15333;50.010;20.020;2022-11-20T02:25:00;221.05;;;74.40;;
28007;SDS011;15333;50.010;20.020;2022-11-20T02:28:03;240.68;;;81.47;;
28007;SDS011;15333;50.010;20.020;2022-11-20T02:31:05;217.50;;;75.45;;
28007;SDS011;15333;50.010;20.020;2022-11-20T02:34:06;221.02;;;73.97;;
28007;SDS011;15333;50.010;20.020;2022-11-20T02:37:07;219.80;;;74.97;;
28007;SDS011;15333;50.010;20.020;2022-11-20T02:40:08;221.32;;;71.28;;
28007;SDS011;15333;50.010;20.020;2022-11-20T02:43:09;211.00;;;72.53;;
28007;SDS011;15333;50.010;20.020;2022-11-20T02:46:10;217.15;;;70.63;;
28007;SDS011;15333;50.010;20.020;2022-11-20T02:49:11;213.38;;;70.53;;
28007;SDS011;15333;50.010;20.020;2022-11-20T02:52:12;197.75;;;65.80;;
28007;SDS011;15333;50.010;20.020;2022-11-20T02:55:13;211.00;;;70.22;;
28007;SDS011;15333;50.010;20.020;2022-11-20T02:58:14;208.02;;;65.47;;
28007;SDS011;15333;50.010;20.020;2022-11-20T03:01:15;205.35;;;66.72;;
28007;SDS011;15333;50.010;20.020;2022-11-20T03:04:16;206.27;;;65.22;;
28007;SDS011;15333;50.010;20.020;2022-11-20T03:07:17;206.10;;;69.57;;
28007;SDS011;15333;50.010;20.020;2022-11-20T03:10:18;199.15;;;65.13;;
28007;SDS011;15333;50.010;20.020;2022-11-20T03:13:18;199.48;;;67.30;;
28007;SDS011;15333;50.010;20.020;2022-11-20T03:16:20;198.30;;;64.95;;
28007;SDS011;15333;50.010;20.020;2022-11-20T03:19:22;201.40;;;68.22;;
28007;SDS011;15333;50.010;20.020;2022-11-20T03:22:23;200.63;;;69.03;;
28007;SDS011;15333;50.010;20.020;2022-11-20T03:25:24;242.93;;;79.63;;
28007;SDS011;15333;50.010;20.020;2022-11-20T03:28:25;257.90;;;79.82;;
28007;SDS011;15333;50.010;20.020;2022-11-20T03:31:27;229.15;;;77.75;;
28007;SDS011;15333;50.010;20.020;2022-11-20T03:34:32;245.35;;;77.10;;
28007;SDS011;15333;50.010;20.020;2022-11-20T03:37:33;235.90;;;78.53;;
28007;SDS011;15333;50.010;20.020;2022-11-20T03:40:34;246.57;;;81.80;;
28007;SDS011;15333;50.010;20.020;2022-11-20T03:43:35;248.10;;;77.82;;
28007;SDS011;15333;50.010;20.020;2022-11-20T03:46:37;252.27;;;84.10;;
28007;SDS011;15333;50.010;20.020;2022-11-20T03:49:38;245.77;;;80.90;;
28007;SDS011;15333;50.010;20.020;2022-11-20T03:52:39;237.63;;;77.28;;
28007;SDS011;15333;50.010;20.020;2022-11-20T03:55:40;222.75;;;75.90;;
28007;SDS011;15333;50.010;20.020;2022-11-20T03:58:41;219.18;;;72.15;;
28007;SDS011;15333;50.010;20.020;2022-11-20T04:01:42;243.38;;;75.65;;
28007;SDS011;15333;50.010;20.020;2022-11-20T04:04:43;227.32;;;73.97;;
28007;SDS011;15333;50.010;20.020;2022-11-20T04:07:44;221.48;;;71.75;;
28007;SDS011;15333;50.010;20.020;2022-11-20T04:10:45;204.82;;;71.28;;
28007;SDS011;15333;50.010;20.020;2022-11-20T04:13:47;213.38;;;71.18;;
28007;SDS011;15333;50.010;20.020;2022-11-20T04:16:50;219.68;;;66.72;;
28007;SDS011;15333;50.010;20.020;2022-11-20T04:19:51;210.43;;;67.68;;
28007;SDS011;15333;50.010;20.020;2022-11-20T04:22:53;215.63;;;67.72;;
28007;SDS011;15333;50.010;20.020;2022-11-20T04:25:55;218.32;;;65.68;;
28007;SDS011;15333;50.010;20.020;2022-11-20T04:29:02;210.02;;;64.25;;
28007;SDS011;15333;50.010;20.020;2022-11-20T04:32:03;193.15;;;66.15;;
28007;SDS011;15333;50.010;20.020;2022-11-20T04:35:04;220.55;;;67.63;;
28007;SDS011;15333;50.010;20.020;2022-11-20T04:38:06;194.18;;;67.00;;
28007;SDS011;15333;50.010;20.020;2022-11-20T04:41:08;214.40;;;66.65;;
28007;SDS011;15333;50.010;20.020;2022-11-20T04:44:14;212.57;;;71.07;;
28007;SDS011;15333;50.010;20.020;2022-11-20T04:47:15;204.43;;;68.55;;
28007;SDS011;15333;50.010;20.020;2022-11-20T04:50:16;214.65;;;73.57;;
28007;SDS011;15333;50.010;20.020;2022-11-20T04:53:17;208.35;;;71.00;;
28007;SDS011;15333;50.010;20.020;2022-11-20T04:56:18;216.93;;;71.65;;
28007;SDS011;15333;50.010;20.020;2022-11-20T04:59:19;214.27;;;69.78;;
28007;SDS011;15333;50.010;20.020;2022-11-20T05:02:20;216.02;;;67.18;;
28007;SDS011;15333;50.010;20.020;2022-11-20T05:05:21;226.52;;;69.97;;
28007;SDS011;15333;50.010;20.020;2022-11-20T05:08:22;207.38;;;67.07;;
28007;SDS011;15333;50.010;20.020;2022-11-20T05:11:23;210.18;;;69.60;;
28007;SDS011;15333;50.010;20.020;2022-11-20T05:14:24;212.45;;;70.20;;
28007;SDS011;15333;50.010;20.020;2022-11-20T05:17:25;212.35;;;70.45;;
28007;SDS011;15333;50.010;20.020;2022-11-20T05:20:26;200.02;;;66.25;;
28007;SDS011;15333;50.010;20.020;2022-11-20T05:23:28;205.68;;;68.07;;
28007;SDS011;15333;50.010;20.020;2022-11-20T05:26:30;219.82;;;71.55;;
28007;SDS011;15333;50.010;20.020;2022-11-20T05:29:31;210.05;;;68.32;;
28007;SDS011;15333;50.010;20.020;2022-11-20T05:32:31;210.35;;;67.60;;
28007;SDS011;15333;50.010;20.020;2022-11-20T05:35:32;219.80;;;75.90;;
28007;SDS011;15333;50.010;20.020;2022-11-20T05:38:33;242.70;;;79.05;;
28007;SDS011;15333;50.010;20.020;2022-11-20T05:41:34;237.95;;;78.20;;
28007;SDS011;15333;50.010;20.020;2022-11-20T05:44:35;252.25;;;77.15;;
28007;SDS011;15333;50.010;20.020;2022-11-20T05:47:36;237.38;;;79.38;;
28007;SDS011;15333;50.010;20.020;2022-11-20T05:50:36;215.23;;;74.20;;
28007;SDS011;15333;50.010;20.020;2022-11-20T05:53:37;233.73;;;74.50;;
28007;SDS011;15333;50.010;20.020;2022-11-20T05:56:38;215.52;;;73.60;;
28007;SDS011;15333;50.010;20.020;2022-11-20T05:59:39;231.93;;;80.00;;
28007;SDS011;15333;50.010;20.020;2022-11-20T06:02:40;231.32;;;80.88;;
28007;SDS011;15333;50.010;20.020;2022-11-20T06:05:41;230.52;;;78.15;;
28007;SDS011;15333;50.010;20.020;2022-11-20T06:08:42;233.90;;;80.50;;
28007;SDS011;15333;50.010;20.020;2022-11-20T06:11:43;265.50;;;83.85;;
28007;SDS011;15333;50.010;20.020;2022-11-20T06:14:44;283.75;;;85.68;;
28007;SDS011;15333;50.010;20.020;2022-11-20T06:17:45;284.27;;;83.45;;
28007;SDS011;15333;50.010;20.020;2022-11-20T06:20:46;278.55;;;86.60;;
28007;SDS011;15333;50.010;20.020;2022-11-20T06:23:47;286.50;;;78.45;;
28007;SDS011;15333;50.010;20.020;2022-11-20T06:26:49;275.00;;;75.07;;
28007;SDS011;15333;50.010;20.020;2022-11-20T06:29:49;283.33;;;76.93;;
28007;SDS011;15333;50.010;20.020;2022-11-20T06:32:50;284.15;;;79.35;;
28007;SDS011;15333;50.010;20.020;2022-11-20T06:35:51;271.42;;;76.53;;
28007;SDS011;15333;50.010;20.020;2022-11-20T06:38:52;343.05;;;81.18;;
28007;SDS011;15333;50.010;20.020;2022-11-20T06:41:53;299.42;;;77.25;;
28007;SDS011;15333;50.010;20.020;2022-11-20T06:44:54;301.77;;;74.10;;
28007;SDS011;15333;50.010;20.020;2022-11-20T06:47:56;356.98;;;74.75;;
28007;SDS011;15333;50.010;20.020;2022-11-20T06:50:58;274.48;;;69.43;;
28007;SDS011;15333;50.010;20.020;2022-11-20T06:53:59;400.35;;;75.97;;
28007;SDS011;15333;50.010;20.020;2022-11-20T06:57:01;373.63;;;74.40;;
28007;SDS011;15333;50.010;20.020;2022-11-20T07:00:02;420.48;;;78.43;;
28007;SDS011;15333;50.010;20.020;2022-11-20T07:03:03;513.80;;;84.57;;
28007;SDS011;15333;50.010;20.020;2022-11-20T07:06:05;356.52;;;78.65;;
28007;SDS011;15333;50.010;20.020;2022-11-20T07:09:06;691.65;;;92.28;;
28007;SDS011;15333;50.010;20.020;2022-11-20T07:12:07;377.90;;;73.70;;
28007;SDS011;15333;50.010;20.020;2022-11-20T07:15:08;382.88;;;79.60;;
28007;SDS011;15333;50.010;20.020;2022-11-20T07:18:09;333.33;;;73.18;;
28007;SDS011;15333;50.010;20.020;2022-11-20T07:21:10;415.05;;;79.45;;
28007;SDS011;15333;50.010;20.020;2022-11-20T07:24:11;377.52;;;78.30;;
28007;SDS011;15333;50.010;20.020;2022-11-20T07:27:12;577.08;;;90.82;;
28007;SDS011;15333;50.010;20.020;2022-11-20T07:30:13;445.48;;;79.35;;
28007;SDS011;15333;50.010;20.020;2022-11-20T07:33:15;394.02;;;77.10;;
28007;SDS011;15333;50.010;20.020;2022-11-20T07:36:16;413.20;;;78.05;;
28007;SDS011;15333;50.010;20.020;2022-11-20T07:39:16;472.38;;;79.88;;
28007;SDS011;15333;50.010;20.020;2022-11-20T07:42:17;616.67;;;87.82;;
28007;SDS011;15333;50.010;20.020;2022-11-20T07:45:19;509.70;;;82.25;;
28007;SDS011;15333;50.010;20.020;2022-11-20T07:48:20;519.85;;;81.90;;
28007;SDS011;15333;50.010;20.020;2022-11-20T07:51:21;525.97;;;77.65;;
28007;SDS011;15333;50.010;20.020;2022-11-20T07:54:22;408.08;;;77.78;;
28007;SDS011;15333;50.010;20.020;2022-11-20T07:57:23;366.63;;;76.38;;
28007;SDS011;15333;50.010;20.020;2022-11-20T08:00:25;316.70;;;72.47;;
28007;SDS011;15333;50.010;20.020;2022-11-20T08:03:26;334.92;;;71.40;;
28007;SDS011;15333;50.010;20.020;2022-11-20T08:06:27;391.40;;;75.25;;
28007;SDS011;15333;50.010;20.020;2022-11-20T08:09:28;270.38;;;65.55;;
28007;SDS011;15333;50.010;20.020;2022-11-20T08:12:29;348.33;;;73.57;;
28007;SDS011;15333;50.010;20.020;2022-11-20T08:15:49;299.77;;;74.68;;
28007;SDS011;15333;50.010;20.020;2022-11-20T08:18:54;289.33;;;72.78;;
28007;SDS011;15333;50.010;20.020;2022-11-20T08:21:55;260.85;;;69.13;;
28007;SDS011;15333;50.010;20.020;2022-11-20T08:24:56;254.25;;;67.57;;
28007;SDS011;15333;50.010;20.020;2022-11-20T08:28:01;238.48;;;64.97;;
28007;SDS011;15333;50.010;20.020;2022-11-20T08:31:04;238.18;;;63.08;;
28007;SDS011;15333;50.010;20.020;2022-11-20T08:34:05;231.27;;;66.10;;
28007;SDS011;15333;50.010;20.020;2022-11-20T08:37:06;232.98;;;64.47;;
28007;SDS011;15333;50.010;20.020;2022-11-20T08:40:10;236.77;;;69.22;;
28007;SDS011;15333;50.010;20.020;2022-11-20T08:43:11;259.30;;;70.53;;
28007;SDS011;15333;50.010;20.020;2022-11-20T08:46:12;255.25;;;70.70;;
28007;SDS011;15333;50.010;20.020;2022-11-20T08:49:13;238.15;;;67.82;;
28007;SDS011;15333;50.010;20.020;2022-11-20T08:52:15;237.43;;;67.65;;
28007;SDS011;15333;50.010;20.020;2022-11-20T08:55:16;247.55;;;70.45;;
28007;SDS011;15333;50.010;20.020;2022-11-20T08:58:16;238.45;;;69.25;;
28007;SDS011;15333;50.010;20.020;2022-11-20T09:01:18;256.73;;;70.22;;
28007;SDS011;15333;50.010;20.020;2022-11-20T09:04:19;257.27;;;68.00;;
28007;SDS011;15333;50.010;20.020;2022-11-20T09:07:20;235.30;;;68.82;;
28007;SDS011;15333;50.010;20.020;2022-11-20T09:10:20;229.73;;;64.50;;
28007;SDS011;15333;50.010;20.020;2022-11-20T09:13:22;214.50;;;63.35;;
28007;SDS011;15333;50.010;20.020;2022-11-20T09:16:23;209.63;;;64.97;;
28007;SDS011;15333;50.010;20.020;2022-11-20T09:19:24;212.65;;;65.82;;
28007;SDS011;15333;50.010;20.020;2022-11-20T09:22:25;232.18;;;68.15;;
28007;SDS011;15333;50.010;20.020;2022-11-20T09:25:26;211.32;;;67.55;;
28007;SDS011;15333;50.010;20.020;2022-11-20T09:28:27;204.30;;;63.35;;
28007;SDS011;15333;50.010;20.020;2022-11-20T09:31:28;216.13;;;66.63;;
28007;SDS011;15333;50.010;20.020;2022-11-20T09:34:28;196.10;;;62.67;;
28007;SDS011;15333;50.010;20.020;2022-11-20T09:37:29;221.40;;;67.43;;
28007;SDS011;15333;50.010;20.020;2022-11-20T09:40:30;220.48;;;68.70;;
28007;SDS011;15333;50.010;20.020;2022-11-20T09:43:43;206.93;;;64.13;;
28007;SDS011;15333;50.010;20.020;2022-11-20T09:46:57;200.65;;;60.22;;
28007;SDS011;15333;50.010;20.020;2022-11-20T09:50:31;198.57;;;63.45;;
28007;SDS011;15333;50.010;20.020;2022-11-20T09:54:02;194.05;;;61.20;;
28007;SDS011;15333;50.010;20.020;2022-11-20T09:57:12;206.63;;;60.03;;
28007;SDS011;15333;50.010;20.020;2022-11-20T10:00:19;207.30;;;59.17;;
28007;SDS011;15333;50.010;20.020;2022-11-20T10:07:13;203.18;;;61.30;;
28007;SDS011;15333;50.010;20.020;2022-11-20T10:10:33;210.35;;;64.50;;
28007;SDS011;15333;50.010;20.020;2022-11-20T10:13:38;190.43;;;61.55;;
28007;SDS011;15333;50.010;20.020;2022-11-20T10:17:03;182.63;;;60.53;;
28007;SDS011;15333;50.010;20.020;2022-11-20T10:20:17;191.15;;;62.15;;
28007;SDS011;15333;50.010;20.020;2022-11-20T10:23:42;199.73;;;59.65;;
28007;SDS011;15333;50.010;20.020;2022-11-20T10:26:58;193.70;;;62.60;;
28007;SDS011;15333;50.010;20.020;2022-11-20T10:33:22;199.05;;;60.05;;
28007;SDS011;15333;50.010;20.020;2022-11-20T10:36:26;186.73;;;58.88;;
28007;SDS011;15333;50.010;20.020;2022-11-20T10:39:35;184.43;;;59.67;;
28007;SDS011;15333;50.010;20.020;2022-11-20T10:42:53;196.45;;;63.72;;
28007;SDS011;15333;50.010;20.020;2022-11-20T10:45:57;194.90;;;61.58;;
28007;SDS011;15333;50.010;20.020;2022-11-20T10:49:02;187.25;;;58.35;;
28007;SDS011;15333;50.010;20.020;2022-11-20T10:58:49;196.75;;;60.30;;
28007;SDS011;15333;50.010;20.020;2022-11-20T11:02:01;209.38;;;66.70;;
28007;SDS011;15333;50.010;20.020;2022-11-20T11:05:09;225.50;;;71.97;;
28007;SDS011;15333;50.010;20.020;2022-11-20T11:08:16;204.60;;;67.13;;
28007;SDS011;15333;50.010;20.020;2022-11-20T11:11:26;186.95;;;65.57;;
28007;SDS011;15333;50.010;20.020;2022-11-20T11:14:29;205.63;;;67.82;;
28007;SDS011;15333;50.010;20.020;2022-11-20T11:17:31;205.38;;;70.88;;
28007;SDS011;15333;50.010;20.020;2022-11-20T11:20:33;208.50;;;68.78;;
28007;SDS011;15333;50.010;20.020;2022-11-20T11:26:35;209.27;;;71.28;;
28007;SDS011;15333;50.010;20.020;2022-11-20T11:29:36;210.05;;;69.97;;
28007;SDS011;15333;50.010;20.020;2022-11-20T11:32:37;208.75;;;72.32;;
28007;SDS011;15333;50.010;20.020;2022-11-20T11:35:48;206.35;;;71.97;;
28007;SDS011;15333;50.010;20.020;2022-11-20T11:38:53;204.88;;;67.55;;
28007;SDS011;15333;50.010;20.020;2022-11-20T11:41:54;206.35;;;71.30;;
28007;SDS011;15333;50.010;20.020;2022-11-20T11:44:56;191.02;;;69.57;;
28007;SDS011;15333;50.010;20.020;2022-11-20T11:48:07;207.77;;;71.13;;
28007;SDS011;15333;50.010;20.020;2022-11-20T11:51:09;203.73;;;67.38;;
28007;SDS011;15333;50.010;20.020;2022-11-20T11:54:14;189.13;;;69.03;;
28007;SDS011;15333;50.010;20.020;2022-11-20T12:00:41;192.98;;;69.38;;
28007;SDS011;15333;50.010;20.020;2022-11-20T12:07:15;197.00;;;67.38;;
28007;SDS011;15333;50.010;20.020;2022-11-20T12:16:59;186.45;;;67.72;;
28007;SDS011;15333;50.010;20.020;2022-11-20T12:20:01;195.48;;;72.85;;
28007;SDS011;15333;50.010;20.020;2022-11-20T12:23:24;199.30;;;72.35;;
28007;SDS011;15333;50.010;20.020;2022-11-20T12:26:54;198.45;;;72.18;;
28007;SDS011;15333;50.010;20.020;2022-11-20T12:30:15;189.43;;;68.15;;
28007;SDS011;15333;50.010;20.020;2022-11-20T12:34:05;201.57;;;73.30;;
28007;SDS011;15333;50.010;20.020;2022-11-20T12:36:55;196.23;;;70.03;;
28007;SDS011;15333;50.010;20.020;2022-11-20T12:40:12;189.70;;;71.63;;
28007;SDS011;15333;50.010;20.020;2022-11-20T12:43:24;197.80;;;74.90;;
28007;SDS011;15333;50.010;20.020;2022-11-20T12:46:46;200.52;;;73.72;;
28007;SDS011;15333;50.010;20.020;2022-11-20T12:50:02;200.52;;;74.07;;
28007;SDS011;15333;50.010;20.020;2022-11-20T12:53:25;205.07;;;71.20;;
28007;SDS011;15333;50.010;20.020;2022-11-20T13:06:19;205.93;;;76.38;;
28007;SDS011;15333;50.010;20.020;2022-11-20T13:09:20;196.90;;;75.25;;
28007;SDS011;15333;50.010;20.020;2022-11-20T13:19:01;228.02;;;83.65;;
28007;SDS011;15333;50.010;20.020;2022-11-20T13:22:04;221.25;;;83.50;;
28007;SDS011;15333;50.010;20.020;2022-11-20T13:25:08;240.65;;;86.35;;
28007;SDS011;15333;50.010;20.020;2022-11-20T13:31:28;245.60;;;88.53;;
28007;SDS011;15333;50.010;20.020;2022-11-20T13:37:34;255.77;;;96.10;;
28007;SDS011;15333;50.010;20.020;2022-11-20T13:40:37;247.90;;;91.15;;
28007;SDS011;15333;50.010;20.020;2022-11-20T13:43:51;248.32;;;90.35;;
28007;SDS011;15333;50.010;20.020;2022-11-20T13:46:53;249.20;;;92.47;;
28007;SDS011;15333;50.010;20.020;2022-11-20T13:49:55;257.63;;;93.72;;
28007;SDS011;15333;50.010;20.020;2022-11-20T13:53:02;250.00;;;96.93;;
28007;SDS011;15333;50.010;20.020;2022-11-20T13:56:26;261.48;;;95.80;;
28007;SDS011;15333;50.010;20.020;2022-11-20T14:02:36;252.60;;;93.38;;
28007;SDS011;15333;50.010;20.020;2022-11-20T14:05:38;271.40;;;99.43;;
28007;SDS011;15333;50.010;20.020;2022-11-20T14:08:48;267.00;;;98.35;;
28007;SDS011;15333;50.010;20.020;2022-11-20T14:11:50;274.33;;;100.20;;
28007;SDS011;15333;50.010;20.020;2022-11-20T14:14:51;264.77;;;98.25;;
28007;SDS011;15333;50.010;20.020;2022-11-20T14:17:53;275.65;;;102.43;;
28007;SDS011;15333;50.010;20.020;2022-11-20T14:20:54;269.92;;;103.10;;
28007;SDS011;15333;50.010;20.020;2022-11-20T14:24:05;294.50;;;111.93;;
28007;SDS011;15333;50.010;20.020;2022-11-20T14:27:41;290.55;;;106.68;;
28007;SDS011;15333;50.010;20.020;2022-11-20T14:30:39;281.00;;;106.80;;
28007;SDS011;15333;50.010;20.020;2022-11-20T14:33:44;292.85;;;106.07;;
28007;SDS011;15333;50.010;20.020;2022-11-20T14:36:45;282.58;;;100.22;;
28007;SDS011;15333;50.010;20.020;2022-11-20T14:39:55;289.35;;;103.85;;
28007;SDS011;15333;50.010;20.020;2022-11-20T14:42:57;285.75;;;100.97;;
28007;SDS011;15333;50.010;20.020;2022-11-20T14:45:59;287.77;;;100.95;;
28007;SDS011;15333;50.010;20.020;2022-11-20T14:49:03;319.63;;;113.70;;
28007;SDS011;15333;50.010;20.020;2022-11-20T14:52:13;322.42;;;122.90;;
28007;SDS011;15333;50.010;20.020;2022-11-20T14:55:35;299.52;;;106.00;;
28007;SDS011;15333;50.010;20.020;2022-11-20T14:58:38;292.05;;;99.75;;
28007;SDS011;15333;50.010;20.020;2022-11-20T15:01:39;302.08;;;110.50;;
28007;SDS011;15333;50.010;20.020;2022-11-20T15:04:49;296.13;;;105.25;;
28007;SDS011;15333;50.010;20.020;2022-11-20T15:08:07;312.55;;;116.22;;
28007;SDS011;15333;50.010;20.020;2022-11-20T15:11:19;309.15;;;113.45;;
28007;SDS011;15333;50.010;20.020;2022-11-20T15:14:27;330.40;;;121.50;;
28007;SDS011;15333;50.010;20.020;2022-11-20T15:17:29;330.70;;;127.47;;
28007;SDS011;15333;50.010;20.020;2022-11-20T15:20:32;340.80;;;128.13;;
28007;SDS011;15333;50.010;20.020;2022-11-20T15:23:34;360.58;;;132.05;;
28007;SDS011;15333;50.010;20.020;2022-11-20T15:26:35;377.77;;;135.55;;
28007;SDS011;15333;50.010;20.020;2022-11-20T15:29:39;377.95;;;142.70;;
28007;SDS011;15333;50.010;20.020;2022-11-20T15:32:42;411.58;;;151.18;;
28007;SDS011;15333;50.010;20.020;2022-11-20T15:35:43;399.20;;;147.93;;
28007;SDS011;15333;50.010;20.020;2022-11-20T15:38:45;434.02;;;156.23;;
28007;SDS011;15333;50.010;20.020;2022-11-20T15:41:46;413.30;;;153.38;;
28007;SDS011;15333;50.010;20.020;2022-11-20T15:44:47;425.20;;;155.57;;
28007;SDS011;15333;50.010;20.020;2022-11-20T15:47:48;444.02;;;162.88;;
28007;SDS011;15333;50.010;20.020;2022-11-20T15:51:12;392.88;;;145.18;;
28007;SDS011;15333;50.010;20.020;2022-11-20T15:54:23;387.08;;;142.43;;
28007;SDS011;15333;50.010;20.020;2022-11-20T15:57:24;374.70;;;133.73;;
28007;SDS011;15333;50.010;20.020;2022-11-20T16:00:25;347.48;;;128.52;;
28007;SDS011;15333;50.010;20.020;2022-11-20T16:03:26;352.45;;;126.70;;
28007;SDS011;15333;50.010;20.020;2022-11-20T16:06:27;361.15;;;131.80;;
28007;SDS011;15333;50.010;20.020;2022-11-20T16:09:28;357.08;;;129.88;;
28007;SDS011;15333;50.010;20.020;2022-11-20T16:12:29;343.67;;;118.30;;
28007;SDS011;15333;50.010;20.020;2022-11-20T16:15:52;332.17;;;123.65;;
28007;SDS011;15333;50.010;20.020;2022-11-20T16:18:57;340.95;;;127.10;;
28007;SDS011;15333;50.010;20.020;2022-11-20T16:21:59;332.52;;;125.93;;
28007;SDS011;15333;50.010;20.020;2022-11-20T16:25:01;329.48;;;123.22;;
28007;SDS011;15333;50.010;20.020;2022-11-20T16:28:02;347.35;;;126.15;;
28007;SDS011;15333;50.010;20.020;2022-11-20T16:31:14;335.20;;;124.53;;
28007;SDS011;15333;50.010;20.020;2022-11-20T16:34:19;349.05;;;123.88;;
28007;SDS011;15333;50.010;20.020;2022-11-20T16:37:20;356.60;;;129.88;;
28007;SDS011;15333;50.010;20.020;2022-11-20T16:40:21;354.30;;;126.75;;
28007;SDS011;15333;50.010;20.020;2022-11-20T16:43:23;364.95;;;132.65;;
28007;SDS011;15333;50.010;20.020;2022-11-20T16:46:25;356.52;;;126.15;;
28007;SDS011;15333;50.010;20.020;2022-11-20T16:49:28;353.75;;;126.85;;
28007;SDS011;15333;50.010;20.020;2022-11-20T16:52:30;363.13;;;128.90;;
28007;SDS011;15333;50.010;20.020;2022-11-20T16:55:31;348.40;;;126.45;;
28007;SDS011;15333;50.010;20.020;2022-11-20T16:58:32;341.60;;;128.68;;
28007;SDS011;15333;50.010;20.020;2022-11-20T17:01:33;353.67;;;132.93;;
28007;SDS011;15333;50.010;20.020;2022-11-20T17:04:36;357.05;;;136.57;;
28007;SDS011;15333;50.010;20.020;2022-11-20T17:07:37;358.92;;;132.90;;
28007;SDS011;15333;50.010;20.020;2022-11-20T17:10:38;339.65;;;129.07;;
28007;SDS011;15333;50.010;20.020;2022-11-20T17:13:39;365.35;;;131.80;;
28007;SDS011;15333;50.010;20.020;2022-11-20T17:16:41;356.30;;;130.40;;
28007;SDS011;15333;50.010;20.020;2022-11-20T17:19:42;354.80;;;131.25;;
28007;SDS011;15333;50.010;20.020;2022-11-20T17:22:43;355.23;;;132.60;;
28007;SDS011;15333;50.010;20.020;2022-11-20T17:25:44;355.25;;;132.30;;
28007;SDS011;15333;50.010;20.020;2022-11-20T17:28:46;328.20;;;125.30;;
28007;SDS011;15333;50.010;20.020;2022-11-20T17:31:53;338.33;;;130.65;;
28007;SDS011;15333;50.010;20.020;2022-11-20T17:34:54;378.02;;;140.70;;
28007;SDS011;15333;50.010;20.020;2022-11-20T17:37:55;366.27;;;135.00;;
28007;SDS011;15333;50.010;20.020;2022-11-20T17:41:10;365.60;;;139.60;;
28007;SDS011;15333;50.010;20.020;2022-11-20T17:44:12;348.98;;;128.40;;
28007;SDS011;15333;50.010;20.020;2022-11-20T17:47:13;362.95;;;136.85;;
28007;SDS011;15333;50.010;20.020;2022-11-20T17:50:15;362.73;;;139.75;;
28007;SDS011;15333;50.010;20.020;2022-11-20T17:53:16;374.45;;;139.73;;
28007;SDS011;15333;50.010;20.020;2022-11-20T17:56:17;364.77;;;142.05;;
28007;SDS011;15333;50.010;20.020;2022-11-20T17:59:37;379.23;;;139.47;;
28007;SDS011;15333;50.010;20.020;2022-11-20T18:02:38;370.00;;;144.35;;
28007;SDS011;15333;50.010;20.020;2022-11-20T18:05:39;356.42;;;136.02;;
28007;SDS011;15333;50.010;20.020;2022-11-20T18:08:40;357.48;;;141.77;;
28007;SDS011;15333;50.010;20.020;2022-11-20T18:11:42;351.98;;;137.30;;
28007;SDS011;15333;50.010;20.020;2022-11-20T18:14:43;359.80;;;139.15;;
28007;SDS011;15333;50.010;20.020;2022-11-20T18:17:44;355.70;;;137.57;;
28007;SDS011;15333;50.010;20.020;2022-11-20T18:20:45;371.58;;;142.70;;
28007;SDS011;15333;50.010;20.020;2022-11-20T18:23:53;379.17;;;144.25;;